createdAt,value
2018-09-05T00:00:52.138Z,71.33
2018-09-05T00:01:52.111Z,71.13
2018-09-05T00:02:52.114Z,70.86
2018-09-05T00:03:52.122Z,71.1
2018-09-05T00:04:52.107Z,71.13
2018-09-05T00:05:52.097Z,71.1
2018-09-05T00:06:52.141Z,71.31
2018-09-05T00:07:52.151Z,71.66
2018-09-05T00:08:52.499Z,71.45
2018-09-05T00:09:52.231Z,71.35
2018-09-05T00:10:52.136Z,71.58
2018-09-05T00:11:52.130Z,71.39
2018-09-05T00:12:52.162Z,70.88
2018-09-05T00:13:52.164Z,71.03
2018-09-05T00:14:52.211Z,71.68
2018-09-05T00:15:52.241Z,71.77
2018-09-05T00:16:52.136Z,71.36
2018-09-05T00:17:52.167Z,71.83
2018-09-05T00:18:52.150Z,71.49
2018-09-05T00:19:52.214Z,71.29
2018-09-05T00:20:52.520Z,72.15
2018-09-05T00:21:52.292Z,71.99
2018-09-05T00:22:52.217Z,71.67
2018-09-05T00:23:52.148Z,72.35
2018-09-05T00:24:52.105Z,71.86
2018-09-05T00:25:52.300Z,71.3
2018-09-05T00:26:52.127Z,71.42
2018-09-05T00:27:52.127Z,71.87
2018-09-05T00:28:52.191Z,71.91
2018-09-05T00:29:52.153Z,71.4
2018-09-05T00:30:52.157Z,71.8
2018-09-05T00:31:52.590Z,71.74
2018-09-05T00:32:52.181Z,72.02
2018-09-05T00:33:52.149Z,72.1
2018-09-05T00:34:52.128Z,71.7
2018-09-05T00:35:52.217Z,71.89
2018-09-05T00:36:52.115Z,72.25
2018-09-05T00:37:52.139Z,72.53
2018-09-05T00:38:52.299Z,72.72
2018-09-05T00:39:52.220Z,72.53
2018-09-05T00:40:52.129Z,72.26
2018-09-05T00:41:52.145Z,72.48
2018-09-05T00:42:52.192Z,72.46
2018-09-05T00:43:52.308Z,72.51
2018-09-05T00:44:52.225Z,72.91
2018-09-05T00:45:52.135Z,74.03
2018-09-05T00:46:52.266Z,73.62
2018-09-05T00:47:52.255Z,73.16
2018-09-05T00:48:52.344Z,73.43
2018-09-05T00:49:52.145Z,73.57
2018-09-05T00:50:52.202Z,74.25
2018-09-05T00:51:52.156Z,74.09
2018-09-05T00:52:52.149Z,74.12
2018-09-05T00:53:52.248Z,73.59
2018-09-05T00:54:52.279Z,74.42
2018-09-05T00:55:52.162Z,73.73
2018-09-05T00:56:52.190Z,73.56
2018-09-05T00:57:52.338Z,73.77
2018-09-05T00:58:52.448Z,74.13
2018-09-05T00:59:52.177Z,74.45
2018-09-05T01:00:52.343Z,74.29
2018-09-05T01:01:52.193Z,73.79
2018-09-05T01:02:52.160Z,74.07
2018-09-05T01:03:52.217Z,74.33
2018-09-05T01:04:52.167Z,74.21
2018-09-05T01:05:52.218Z,73.95
2018-09-05T01:06:52.178Z,73.72
2018-09-05T01:07:52.208Z,74.18
2018-09-05T01:08:52.329Z,74.07
2018-09-05T01:09:52.321Z,73.57
2018-09-05T01:10:52.298Z,73.66
2018-09-05T01:11:52.239Z,73.74
2018-09-05T01:12:52.165Z,74.05
2018-09-05T01:13:52.144Z,73.26
2018-09-05T01:14:52.164Z,73.58
2018-09-05T01:15:52.168Z,73.66
2018-09-05T01:16:52.158Z,74.02
2018-09-05T01:17:52.319Z,74.22
2018-09-05T01:18:52.214Z,74.6
2018-09-05T01:19:52.249Z,74.79
2018-09-05T01:20:52.206Z,74.58
2018-09-05T01:21:52.182Z,74.38
2018-09-05T01:22:52.530Z,74.26
2018-09-05T01:23:52.259Z,74.42
2018-09-05T01:24:52.182Z,74.65
2018-09-05T01:25:52.174Z,74.86
2018-09-05T01:26:52.166Z,74.78
2018-09-05T01:27:52.181Z,74.37
2018-09-05T01:28:52.182Z,73.98
2018-09-05T01:29:52.189Z,75.03
2018-09-05T01:30:52.183Z,75.01
2018-09-05T01:31:52.182Z,74.5
2018-09-05T01:32:52.250Z,74.4
2018-09-05T01:33:52.490Z,74.57
2018-09-05T01:34:52.223Z,73.93
2018-09-05T01:35:52.341Z,74.61
2018-09-05T01:36:52.188Z,74.85
2018-09-05T01:37:52.301Z,74.44
2018-09-05T01:38:52.172Z,74.87
2018-09-05T01:39:52.154Z,74.91
2018-09-05T01:40:52.210Z,74.72
2018-09-05T01:41:52.551Z,74.24
2018-09-05T01:42:52.212Z,74.22
2018-09-05T01:43:52.167Z,75.22
2018-09-05T01:44:52.218Z,74.51
2018-09-05T01:45:52.221Z,74.97
2018-09-05T01:46:52.241Z,74.53
2018-09-05T01:47:52.175Z,74.63
2018-09-05T01:48:52.269Z,74.56
2018-09-05T01:49:52.221Z,74.43
2018-09-05T01:50:52.188Z,74.48
2018-09-05T01:51:52.238Z,74.99
2018-09-05T01:52:52.255Z,75.05
2018-09-05T01:53:52.224Z,75.3
2018-09-05T01:54:52.224Z,74.61
2018-09-05T01:55:52.230Z,74.8
2018-09-05T01:56:52.278Z,75.24
2018-09-05T01:57:52.593Z,75.25
2018-09-05T01:58:52.292Z,75.69
2018-09-05T01:59:52.275Z,75.14
2018-09-05T02:00:52.582Z,75.48
2018-09-05T02:01:52.212Z,75.72
2018-09-05T02:02:52.338Z,75.79
2018-09-05T02:03:52.419Z,75.52
2018-09-05T02:04:52.232Z,75.75
2018-09-05T02:05:52.384Z,75.36
2018-09-05T02:06:52.213Z,75.54
2018-09-05T02:07:52.214Z,75.43
2018-09-05T02:08:52.188Z,75.4
2018-09-05T02:09:52.361Z,75.51
2018-09-05T02:10:52.238Z,76
2018-09-05T02:11:52.607Z,75.59
2018-09-05T02:12:52.269Z,75.36
2018-09-05T02:13:52.495Z,75.3
2018-09-05T02:14:52.189Z,75.46
2018-09-05T02:15:52.204Z,75.21
2018-09-05T02:16:52.321Z,75.14
2018-09-05T02:17:52.202Z,74.94
2018-09-05T02:18:52.224Z,75.27
2018-09-05T02:19:52.235Z,74.98
2018-09-05T02:20:52.246Z,74.99
2018-09-05T02:21:52.199Z,74.93
2018-09-05T02:22:52.284Z,75.22
2018-09-05T02:23:52.232Z,75.22
2018-09-05T02:24:52.212Z,75
2018-09-05T02:25:52.238Z,75.36
2018-09-05T02:26:52.852Z,75.79
2018-09-05T02:27:52.204Z,75.26
2018-09-05T02:28:52.396Z,75.23
2018-09-05T02:29:52.258Z,74.78
2018-09-05T02:30:52.246Z,74.59
2018-09-05T02:31:52.420Z,74.84
2018-09-05T02:32:52.291Z,74.68
2018-09-05T02:33:52.222Z,74.67
2018-09-05T02:34:52.211Z,75.11
2018-09-05T02:35:52.207Z,75.35
2018-09-05T02:36:52.291Z,75.5
2018-09-05T02:37:52.215Z,75.44
2018-09-05T02:38:52.214Z,75.1
2018-09-05T02:39:52.223Z,75.38
2018-09-05T02:40:53.152Z,74.9
2018-09-05T02:41:52.219Z,74.95
2018-09-05T02:42:52.228Z,75.09
2018-09-05T02:43:52.276Z,75.7
2018-09-05T02:44:52.317Z,75.49
2018-09-05T02:45:52.340Z,75.32
2018-09-05T02:46:52.231Z,75.4
2018-09-05T02:47:52.249Z,75.38
2018-09-05T02:48:52.230Z,75.38
2018-09-05T02:49:52.263Z,75.61
2018-09-05T02:50:52.208Z,75.74
2018-09-05T02:51:52.234Z,75.43
2018-09-05T02:52:52.250Z,75.18
2018-09-05T02:53:52.513Z,75.25
2018-09-05T02:54:52.441Z,75.6
2018-09-05T02:55:52.389Z,75.32
2018-09-05T02:56:52.278Z,76.63
2018-09-05T02:57:52.389Z,76.22
2018-09-05T02:58:52.296Z,76.27
2018-09-05T02:59:52.239Z,76.9
2018-09-05T03:00:52.248Z,76.55
2018-09-05T03:01:52.625Z,76.11
2018-09-05T03:02:52.455Z,75.81
2018-09-05T03:03:52.300Z,75.75
2018-09-05T03:04:52.422Z,75.55
2018-09-05T03:05:52.365Z,76.19
2018-09-05T03:06:52.311Z,76.21
2018-09-05T03:07:52.321Z,76.15
2018-09-05T03:08:52.393Z,76.75
2018-09-05T03:09:52.672Z,77.26
2018-09-05T03:10:52.306Z,76.88
2018-09-05T03:11:52.251Z,77.33
2018-09-05T03:12:52.262Z,77.4
2018-09-05T03:13:52.265Z,76.92
2018-09-05T03:14:52.407Z,76.89
2018-09-05T03:15:52.264Z,77.33
2018-09-05T03:16:52.266Z,77.16
2018-09-05T03:17:56.331Z,77.12
2018-09-05T03:18:53.776Z,76.42
2018-09-05T03:19:52.258Z,76.68
2018-09-05T03:20:52.277Z,76.67
2018-09-05T03:21:52.347Z,77.42
2018-09-05T03:22:52.299Z,77.2
2018-09-05T03:23:52.507Z,76.87
2018-09-05T03:24:52.244Z,76.54
2018-09-05T03:25:52.251Z,77.15
2018-09-05T03:26:52.239Z,77.27
2018-09-05T03:27:52.387Z,76.9
2018-09-05T03:28:52.337Z,77.11
2018-09-05T03:29:52.680Z,76.88
2018-09-05T03:30:52.342Z,76.38
2018-09-05T03:31:52.315Z,76.58
2018-09-05T03:32:53.304Z,76.66
2018-09-05T03:33:52.272Z,76.58
2018-09-05T03:34:52.600Z,77.01
2018-09-05T03:35:52.280Z,77.12
2018-09-05T03:36:52.412Z,77.32
2018-09-05T03:37:52.265Z,76.99
2018-09-05T03:38:52.358Z,77.05
2018-09-05T03:39:52.272Z,77.06
2018-09-05T03:40:52.323Z,77.04
2018-09-05T03:41:52.530Z,76.92
2018-09-05T03:42:52.451Z,76.6
2018-09-05T03:43:52.283Z,76.9
2018-09-05T03:44:52.248Z,76.72
2018-09-05T03:45:52.562Z,76.91
2018-09-05T03:46:52.386Z,77.29
2018-09-05T03:47:52.439Z,77.29
2018-09-05T03:48:52.277Z,77.26
2018-09-05T03:49:52.941Z,77
2018-09-05T03:50:52.338Z,77.16
2018-09-05T03:51:52.419Z,76.71
2018-09-05T03:52:52.734Z,77.15
2018-09-05T03:53:52.292Z,76.95
2018-09-05T03:54:52.278Z,77.37
2018-09-05T03:55:52.333Z,77.1
2018-09-05T03:56:52.341Z,77.59
2018-09-05T03:57:52.298Z,77.69
2018-09-05T03:58:52.344Z,76.86
2018-09-05T03:59:52.337Z,77.04
2018-09-05T04:00:52.266Z,77.19
2018-09-05T04:01:52.340Z,77.17
2018-09-05T04:02:52.568Z,77.13
2018-09-05T04:03:52.418Z,76.99
2018-09-05T04:04:52.322Z,77.36
2018-09-05T04:05:52.358Z,77.11
2018-09-05T04:06:52.507Z,77.04
2018-09-05T04:07:52.289Z,77.06
2018-09-05T04:08:52.317Z,77.54
2018-09-05T04:09:52.271Z,77.38
2018-09-05T04:10:52.317Z,77.14
2018-09-05T04:11:52.432Z,77.57
2018-09-05T04:12:52.479Z,77.49
2018-09-05T04:13:52.295Z,77.39
2018-09-05T04:14:52.303Z,77.06
2018-09-05T04:15:52.259Z,77.1
2018-09-05T04:16:52.490Z,77.21
2018-09-05T04:17:53.294Z,77.1
2018-09-05T04:18:52.435Z,77.14
2018-09-05T04:19:52.329Z,76.83
2018-09-05T04:20:52.320Z,76.81
2018-09-05T04:21:52.603Z,76.96
2018-09-05T04:22:52.428Z,77.15
2018-09-05T04:23:52.498Z,77.26
2018-09-05T04:24:52.424Z,77.69
2018-09-05T04:25:52.307Z,77.57
2018-09-05T04:26:52.320Z,77.93
2018-09-05T04:27:52.427Z,77.96
2018-09-05T04:28:52.372Z,78.04
2018-09-05T04:29:52.561Z,78.04
2018-09-05T04:30:52.299Z,77.83
2018-09-05T04:31:52.282Z,77.8
2018-09-05T04:32:52.323Z,78.08
2018-09-05T04:33:52.317Z,77.6
2018-09-05T04:34:52.308Z,77.32
2018-09-05T04:35:52.310Z,77.11
2018-09-05T04:36:52.297Z,77.26
2018-09-05T04:37:52.342Z,77.21
2018-09-05T04:38:52.297Z,77.26
2018-09-05T04:39:52.334Z,77.31
2018-09-05T04:40:52.299Z,77.37
2018-09-05T04:41:52.337Z,77.59
2018-09-05T04:42:52.301Z,77.26
2018-09-05T04:43:52.307Z,77.74
2018-09-05T04:44:52.281Z,77.55
2018-09-05T04:45:52.300Z,77.9
2018-09-05T04:46:52.305Z,77.56
2018-09-05T04:47:52.902Z,77.43
2018-09-05T04:48:52.374Z,77.49
2018-09-05T04:49:52.295Z,77.95
2018-09-05T04:50:52.287Z,77.54
2018-09-05T04:51:52.400Z,77.38
2018-09-05T04:52:52.319Z,77.76
2018-09-05T04:53:52.649Z,77.87
2018-09-05T04:54:52.442Z,77.32
2018-09-05T04:55:52.492Z,77.6
2018-09-05T04:56:52.301Z,77.61
2018-09-05T04:57:52.331Z,77.89
2018-09-05T04:58:52.728Z,77.83
2018-09-05T04:59:52.550Z,77.94
2018-09-05T05:00:59.535Z,77.98
2018-09-05T05:01:52.428Z,77.62
2018-09-05T05:02:52.485Z,77.44
2018-09-05T05:03:52.399Z,77.44
2018-09-05T05:04:52.381Z,77.41
2018-09-05T05:05:52.831Z,77.62
2018-09-05T05:06:52.312Z,77.5
2018-09-05T05:07:52.422Z,77.86
2018-09-05T05:08:52.454Z,77.45
2018-09-05T05:09:52.374Z,78.6
2018-09-05T05:10:52.370Z,78.04
2018-09-05T05:11:52.522Z,77.67
2018-09-05T05:12:52.421Z,78.12
2018-09-05T05:13:52.661Z,78.59
2018-09-05T05:14:52.552Z,78.66
2018-09-05T05:15:52.334Z,77.81
2018-09-05T05:16:52.376Z,78.19
2018-09-05T05:17:52.395Z,78.11
2018-09-05T05:18:53.164Z,78.17
2018-09-05T05:19:52.407Z,78.3
2018-09-05T05:20:52.443Z,77.88
2018-09-05T05:21:52.323Z,78.53
2018-09-05T05:22:52.438Z,77.98
2018-09-05T05:23:52.330Z,78.47
2018-09-05T05:24:52.371Z,78.14
2018-09-05T05:25:52.484Z,78.41
2018-09-05T05:26:52.364Z,77.89
2018-09-05T05:27:52.726Z,77.9
2018-09-05T05:28:52.862Z,78.34
2018-09-05T05:29:52.383Z,78.4
2018-09-05T05:30:52.307Z,78.31
2018-09-05T05:31:52.390Z,77.97
2018-09-05T05:32:52.608Z,78.52
2018-09-05T05:33:52.492Z,78.09
2018-09-05T05:34:52.381Z,77.86
2018-09-05T05:35:52.532Z,77.99
2018-09-05T05:36:52.323Z,78.08
2018-09-05T05:37:52.405Z,78.27
2018-09-05T05:38:52.922Z,78.22
2018-09-05T05:39:52.453Z,78.26
2018-09-05T05:40:52.372Z,78.05
2018-09-05T05:41:52.544Z,78.1
2018-09-05T05:42:52.353Z,77.86
2018-09-05T05:43:52.460Z,78.19
2018-09-05T05:44:52.404Z,77.72
2018-09-05T05:45:52.426Z,77.82
2018-09-05T05:46:52.708Z,77.54
2018-09-05T05:47:52.378Z,78.17
2018-09-05T05:48:52.325Z,78.39
2018-09-05T05:49:52.331Z,78.24
2018-09-05T05:50:52.387Z,78.31
2018-09-05T05:51:52.353Z,78.17
2018-09-05T05:52:52.357Z,78.56
2018-09-05T05:53:52.776Z,78.27
2018-09-05T05:54:52.410Z,78.38
2018-09-05T05:55:52.519Z,78.74
2018-09-05T05:56:52.436Z,78.22
2018-09-05T05:57:52.345Z,78.13
2018-09-05T05:58:52.582Z,77.95
2018-09-05T05:59:52.456Z,78.19
2018-09-05T06:00:52.984Z,78.19
2018-09-05T06:01:52.438Z,78.3
2018-09-05T06:02:52.373Z,78.19
2018-09-05T06:03:52.383Z,78.26
2018-09-05T06:04:52.370Z,78.78
2018-09-05T06:05:52.792Z,78.3
2018-09-05T06:06:52.470Z,78.21
2018-09-05T06:07:52.371Z,78.41
2018-09-05T06:08:52.428Z,79.13
2018-09-05T06:09:52.419Z,78.86
2018-09-05T06:10:52.394Z,78.27
2018-09-05T06:11:52.940Z,78.56
2018-09-05T06:12:52.721Z,78.58
2018-09-05T06:13:52.408Z,78.77
2018-09-05T06:14:52.458Z,78.61
2018-09-05T06:15:52.388Z,79.19
2018-09-05T06:16:52.789Z,78.59
2018-09-05T06:17:52.731Z,78.49
2018-09-05T06:18:53.126Z,78.29
2018-09-05T06:19:52.503Z,78.93
2018-09-05T06:20:52.435Z,78.87
2018-09-05T06:21:52.442Z,78.16
2018-09-05T06:22:52.480Z,78.63
2018-09-05T06:23:52.556Z,78.13
2018-09-05T06:24:52.375Z,77.98
2018-09-05T06:25:52.437Z,77.8
2018-09-05T06:26:52.406Z,78.04
2018-09-05T06:27:52.980Z,78.35
2018-09-05T06:28:52.567Z,78.56
2018-09-05T06:29:52.427Z,78.29
2018-09-05T06:30:53.033Z,78.07
2018-09-05T06:31:52.417Z,77.68
2018-09-05T06:32:52.407Z,77.38
2018-09-05T06:33:52.575Z,77.47
2018-09-05T06:34:52.517Z,77.36
2018-09-05T06:35:52.371Z,77.27
2018-09-05T06:36:52.509Z,77.1
2018-09-05T06:37:52.355Z,77.21
2018-09-05T06:38:52.549Z,77.09
2018-09-05T06:39:52.428Z,76.93
2018-09-05T06:40:52.571Z,76.86
2018-09-05T06:41:52.401Z,77.06
2018-09-05T06:42:52.582Z,77.2
2018-09-05T06:43:52.660Z,77.1
2018-09-05T06:44:52.649Z,77.01
2018-09-05T06:45:52.420Z,77.04
2018-09-05T06:46:52.482Z,76.99
2018-09-05T06:47:52.478Z,76.67
2018-09-05T06:48:52.408Z,76.95
2018-09-05T06:49:52.395Z,76.67
2018-09-05T06:50:52.446Z,76.72
2018-09-05T06:51:52.415Z,76.84
2018-09-05T06:52:52.438Z,76.75
2018-09-05T06:53:52.726Z,76.63
2018-09-05T06:54:52.584Z,76.7
2018-09-05T06:55:52.474Z,76.51
2018-09-05T06:56:52.597Z,76.45
2018-09-05T06:57:52.387Z,76.76
2018-09-05T06:58:52.590Z,76.38
2018-09-05T06:59:52.678Z,76.53
2018-09-05T07:00:52.586Z,76.57
2018-09-05T07:01:52.405Z,76.33
2018-09-05T07:02:52.642Z,76.37
2018-09-05T07:03:53.202Z,76.3
2018-09-05T07:04:52.622Z,76.23
2018-09-05T07:05:52.394Z,75.99
2018-09-05T07:06:52.444Z,76.02
2018-09-05T07:07:52.465Z,76.11
2018-09-05T07:08:52.438Z,76.1
2018-09-05T07:09:52.561Z,75.97
2018-09-05T07:10:52.759Z,75.92
2018-09-05T07:11:52.458Z,75.61
2018-09-05T07:12:52.391Z,75.32
2018-09-05T07:13:52.511Z,75.34
2018-09-05T07:14:52.402Z,75.23
2018-09-05T07:15:52.480Z,75.19
2018-09-05T07:16:52.498Z,75.09
2018-09-05T07:17:52.403Z,75.1
2018-09-05T07:18:52.453Z,74.98
2018-09-05T07:19:52.467Z,74.98
2018-09-05T07:20:52.396Z,74.88
2018-09-05T07:21:52.693Z,74.94
2018-09-05T07:22:52.492Z,74.86
2018-09-05T07:23:52.451Z,74.63
2018-09-05T07:24:52.729Z,74.61
2018-09-05T07:25:52.419Z,74.62
2018-09-05T07:26:52.772Z,74.4
2018-09-05T07:27:52.434Z,74.33
2018-09-05T07:28:52.621Z,74.37
2018-09-05T07:29:52.419Z,74.54
2018-09-05T07:30:53.004Z,74.3
2018-09-05T07:31:52.434Z,74.26
2018-09-05T07:32:52.488Z,74.29
2018-09-05T07:33:52.511Z,74.37
2018-09-05T07:34:52.498Z,74.27
2018-09-05T07:35:52.475Z,74.18
2018-09-05T07:36:52.476Z,74.07
2018-09-05T07:37:52.459Z,73.97
2018-09-05T07:38:52.417Z,74.03
2018-09-05T07:39:52.422Z,73.91
2018-09-05T07:40:52.508Z,73.7
2018-09-05T07:41:52.542Z,73.76
2018-09-05T07:42:52.511Z,73.47
2018-09-05T07:43:52.913Z,73.3
2018-09-05T07:44:52.455Z,73.4
2018-09-05T07:45:52.672Z,73.05
2018-09-05T07:46:52.432Z,72.85
2018-09-05T07:47:52.456Z,72.97
2018-09-05T07:48:52.551Z,72.72
2018-09-05T07:49:52.435Z,72.7
2018-09-05T07:50:52.572Z,72.51
2018-09-05T07:51:52.431Z,72.27
2018-09-05T07:52:52.458Z,72.15
2018-09-05T07:53:52.408Z,72.33
2018-09-05T07:54:52.683Z,72.04
2018-09-05T07:55:52.420Z,72.32
2018-09-05T07:56:52.483Z,71.77
2018-09-05T07:57:52.517Z,71.85
2018-09-05T07:58:52.467Z,72.01
2018-09-05T07:59:52.463Z,71.7
2018-09-05T08:00:52.447Z,71.46
2018-09-05T08:01:52.842Z,71.33
2018-09-05T08:02:52.762Z,71.51
2018-09-05T08:03:52.491Z,71.4
2018-09-05T08:04:52.488Z,71.37
2018-09-05T08:05:52.464Z,71.75
2018-09-05T08:06:52.607Z,71.66
2018-09-05T08:07:52.838Z,71.58
2018-09-05T08:08:52.499Z,71.69
2018-09-05T08:09:52.551Z,71.38
2018-09-05T08:10:52.540Z,71.34
2018-09-05T08:11:53.366Z,71.47
2018-09-05T08:12:52.522Z,71.2
2018-09-05T08:13:52.644Z,71.25
2018-09-05T08:14:52.440Z,71.22
2018-09-05T08:15:52.708Z,71.15
2018-09-05T08:16:52.577Z,71.35
2018-09-05T08:17:52.426Z,71.33
2018-09-05T08:18:52.577Z,71.53
2018-09-05T08:19:52.554Z,71.33
2018-09-05T08:20:52.606Z,71.01
2018-09-05T08:21:52.646Z,70.86
2018-09-05T08:22:52.596Z,70.65
2018-09-05T08:23:52.628Z,70.86
2018-09-05T08:24:52.870Z,70.97
2018-09-05T08:25:52.705Z,70.58
2018-09-05T08:26:52.457Z,70.55
2018-09-05T08:27:52.505Z,70.46
2018-09-05T08:28:52.866Z,70.15
2018-09-05T08:29:52.605Z,70.21
2018-09-05T08:30:52.539Z,69.81
2018-09-05T08:31:52.434Z,70.19
2018-09-05T08:32:52.455Z,70.24
2018-09-05T08:33:52.462Z,70.21
2018-09-05T08:34:53.511Z,69.85
2018-09-05T08:35:54.884Z,68.63
2018-09-05T08:36:54.574Z,68.77
2018-09-05T08:37:53.113Z,68.68
2018-09-05T08:38:53.106Z,68.52
2018-09-05T08:39:52.484Z,68.44
2018-09-05T08:40:52.525Z,68.76
2018-09-05T08:41:52.956Z,69.42
2018-09-05T08:42:52.786Z,68.85
2018-09-05T08:43:53.407Z,68.8
2018-09-05T08:44:54.089Z,68.51
2018-09-05T08:45:53.849Z,68.69
2018-09-05T08:46:52.923Z,68.16
2018-09-05T08:47:53.086Z,67.53
2018-09-05T08:48:52.563Z,68.11
2018-09-05T08:49:52.495Z,68.69
2018-09-05T08:50:52.476Z,68.52
2018-09-05T08:51:52.551Z,68.41
2018-09-05T08:52:52.861Z,68.7
2018-09-05T08:53:52.489Z,67.76
2018-09-05T08:54:52.478Z,67.56
2018-09-05T08:55:52.673Z,67.56
2018-09-05T08:56:52.501Z,66.96
2018-09-05T08:57:52.523Z,67.52
2018-09-05T08:58:52.895Z,67.37
2018-09-05T08:59:52.679Z,67.37
2018-09-05T09:00:52.560Z,66.36
2018-09-05T09:01:52.572Z,66.13
2018-09-05T09:02:52.701Z,66.11
2018-09-05T09:03:52.478Z,66.57
2018-09-05T09:04:52.724Z,66.44
2018-09-05T09:05:52.521Z,66.62
2018-09-05T09:06:52.704Z,67.77
2018-09-05T09:07:52.694Z,67.46
2018-09-05T09:08:52.528Z,67.49
2018-09-05T09:09:52.596Z,67.03
2018-09-05T09:10:52.607Z,66.49
2018-09-05T09:11:52.500Z,66.57
2018-09-05T09:12:52.523Z,66.59
2018-09-05T09:13:52.517Z,66.87
2018-09-05T09:14:52.730Z,66.14
2018-09-05T09:15:52.524Z,66.67
2018-09-05T09:16:52.645Z,66.57
2018-09-05T09:17:52.720Z,65.97
2018-09-05T09:18:52.622Z,65.4
2018-09-05T09:19:52.680Z,65.6
2018-09-05T09:20:52.544Z,66.02
2018-09-05T09:21:52.606Z,64.94
2018-09-05T09:22:52.529Z,64.68
2018-09-05T09:23:52.530Z,64.55
2018-09-05T09:24:52.488Z,64.76
2018-09-05T09:25:52.560Z,64.29
2018-09-05T09:26:52.777Z,63.98
2018-09-05T09:27:52.645Z,64.1
2018-09-05T09:28:52.487Z,64.93
2018-09-05T09:29:52.537Z,64.33
2018-09-05T09:30:52.854Z,64.07
2018-09-05T09:31:52.610Z,64.12
2018-09-05T09:32:52.609Z,64.84
2018-09-05T09:33:52.768Z,64.45
2018-09-05T09:34:52.525Z,64.79
2018-09-05T09:35:52.509Z,64.76
2018-09-05T09:36:52.664Z,64.56
2018-09-05T09:37:52.726Z,63.74
2018-09-05T09:38:52.730Z,63.92
2018-09-05T09:39:52.839Z,63.65
2018-09-05T09:40:52.515Z,63.19
2018-09-05T09:41:52.522Z,63.26
2018-09-05T09:42:52.572Z,63.48
2018-09-05T09:43:52.509Z,63.13
2018-09-05T09:44:52.719Z,62.95
2018-09-05T09:45:52.596Z,62.85
2018-09-05T09:46:52.547Z,63.22
2018-09-05T09:47:52.578Z,63.26
2018-09-05T09:48:52.527Z,62.84
2018-09-05T09:49:52.530Z,62.82
2018-09-05T09:50:52.535Z,63.1
2018-09-05T09:51:52.502Z,63.17
2018-09-05T09:52:52.539Z,63.52
2018-09-05T09:53:52.546Z,63.28
2018-09-05T09:54:52.534Z,63.11
2018-09-05T09:55:52.530Z,62.62
2018-09-05T09:56:52.918Z,63.08
2018-09-05T09:57:52.573Z,61.67
2018-09-05T09:58:52.515Z,61.23
2018-09-05T09:59:52.537Z,61.05
2018-09-05T10:00:52.573Z,60.99
2018-09-05T10:01:52.919Z,61.32
2018-09-05T10:02:52.539Z,61.18
2018-09-05T10:03:53.187Z,61.2
2018-09-05T10:04:52.829Z,60.91
2018-09-05T10:05:52.542Z,60.61
2018-09-05T10:06:52.929Z,60.5
2018-09-05T10:07:52.572Z,60.53
2018-09-05T10:08:52.675Z,60.17
2018-09-05T10:09:53.718Z,60.26
2018-09-05T10:10:52.566Z,60.63
2018-09-05T10:11:52.788Z,61.39
2018-09-05T10:12:52.769Z,60.72
2018-09-05T10:13:52.639Z,60.7
2018-09-05T10:14:52.849Z,60.48
2018-09-05T10:15:52.591Z,60.32
2018-09-05T10:16:52.748Z,59.81
2018-09-05T10:17:52.555Z,59.75
2018-09-05T10:18:52.716Z,59.33
2018-09-05T10:19:52.555Z,59.93
2018-09-05T10:20:52.886Z,58.73
2018-09-05T10:21:52.675Z,57.95
2018-09-05T10:22:52.538Z,58.68
2018-09-05T10:23:52.544Z,58.41
2018-09-05T10:24:52.751Z,59.42
2018-09-05T10:25:52.602Z,58.97
2018-09-05T10:26:52.669Z,57.81
2018-09-05T10:27:52.766Z,57.82
2018-09-05T10:28:52.537Z,57.44
2018-09-05T10:29:52.669Z,57.44
2018-09-05T10:30:52.599Z,57.57
2018-09-05T10:31:52.946Z,57.64
2018-09-05T10:32:52.795Z,56.89
2018-09-05T10:33:52.558Z,56.38
2018-09-05T10:34:52.667Z,55.75
2018-09-05T10:35:53.085Z,55.82
2018-09-05T10:36:52.863Z,54.29
2018-09-05T10:37:52.666Z,54.04
2018-09-05T10:38:52.967Z,54.43
2018-09-05T10:39:52.749Z,54.43
2018-09-05T10:40:52.551Z,54.41
2018-09-05T10:41:53.112Z,54.64
2018-09-05T10:42:52.557Z,55.1
2018-09-05T10:43:52.563Z,55.15
2018-09-05T10:44:52.559Z,55.89
2018-09-05T10:45:52.916Z,55.46
2018-09-05T10:46:52.800Z,55.69
2018-09-05T10:47:52.761Z,55.74
2018-09-05T10:48:52.650Z,54.83
2018-09-05T10:49:52.565Z,52.93
2018-09-05T10:50:52.600Z,53.16
2018-09-05T10:51:53.209Z,53.98
2018-09-05T10:52:52.728Z,54.04
2018-09-05T10:53:52.819Z,54.9
2018-09-05T10:54:52.640Z,53.21
2018-09-05T10:55:52.617Z,53.37
2018-09-05T10:56:52.674Z,54.75
2018-09-05T10:57:53.053Z,54.1
2018-09-05T10:58:52.557Z,53.45
2018-09-05T10:59:52.563Z,53.12
2018-09-05T11:00:52.786Z,53.88
2018-09-05T11:01:52.577Z,53.92
2018-09-05T11:02:52.624Z,53.83
2018-09-05T11:03:52.631Z,53.97
2018-09-05T11:04:52.646Z,54.23
2018-09-05T11:05:52.718Z,53.17
2018-09-05T11:06:52.589Z,54.18
2018-09-05T11:07:52.630Z,53.75
2018-09-05T11:08:52.664Z,53.48
2018-09-05T11:09:52.821Z,52.32
2018-09-05T11:10:52.881Z,52.64
2018-09-05T11:11:52.774Z,53.03
2018-09-05T11:12:52.623Z,54.09
2018-09-05T11:13:52.596Z,53.46
2018-09-05T11:14:53.226Z,52.81
2018-09-05T11:15:52.603Z,52.65
2018-09-05T11:16:52.618Z,51.98
2018-09-05T11:17:52.575Z,52.05
2018-09-05T11:18:52.613Z,51.47
2018-09-05T11:19:52.921Z,52.16
2018-09-05T11:20:52.700Z,51.37
2018-09-05T11:21:52.616Z,51.22
2018-09-05T11:22:52.578Z,51.43
2018-09-05T11:23:52.612Z,51.64
2018-09-05T11:24:52.575Z,50.39
2018-09-05T11:25:52.608Z,50.61
2018-09-05T11:26:52.593Z,51.14
2018-09-05T11:27:52.612Z,51.33
2018-09-05T11:28:52.664Z,51.78
2018-09-05T11:29:52.646Z,51.4
2018-09-05T11:30:52.616Z,51.21
2018-09-05T11:31:52.589Z,51.69
2018-09-05T11:32:52.630Z,51.32
2018-09-05T11:33:52.603Z,50.19
2018-09-05T11:34:52.663Z,50.71
2018-09-05T11:35:52.608Z,49.97
2018-09-05T11:36:52.779Z,50.57
2018-09-05T11:37:52.641Z,50.61
2018-09-05T11:38:52.816Z,49.94
2018-09-05T11:39:52.660Z,49.97
2018-09-05T11:40:52.609Z,48.65
2018-09-05T11:41:52.721Z,48.55
2018-09-05T11:42:52.730Z,49.24
2018-09-05T11:43:52.631Z,49.64
2018-09-05T11:44:52.745Z,48.31
2018-09-05T11:45:52.726Z,48.91
2018-09-05T11:46:53.101Z,47
2018-09-05T11:47:52.682Z,46.54
2018-09-05T11:48:52.757Z,46.13
2018-09-05T11:49:52.679Z,45.57
2018-09-05T11:50:52.668Z,46.2
2018-09-05T11:51:52.625Z,45.76
2018-09-05T11:52:52.684Z,44.19
2018-09-05T11:53:52.638Z,44.49
2018-09-05T11:54:52.621Z,44.52
2018-09-05T11:55:52.860Z,45.33
2018-09-05T11:56:53.004Z,44.3
2018-09-05T11:57:52.597Z,43.5
2018-09-05T11:58:53.354Z,44.77
2018-09-05T11:59:52.620Z,42.39
2018-09-05T12:00:52.652Z,43.22
2018-09-05T12:01:52.693Z,44.16
2018-09-05T12:02:52.707Z,44.48
2018-09-05T12:03:52.766Z,45.99
2018-09-05T12:04:52.990Z,43.97
2018-09-05T12:05:52.979Z,43.56
2018-09-05T12:06:52.628Z,42.85
2018-09-05T12:07:52.696Z,42.86
2018-09-05T12:08:52.619Z,42.92
2018-09-05T12:09:52.635Z,42.35
2018-09-05T12:10:52.687Z,41.84
2018-09-05T12:11:53.316Z,43.72
2018-09-05T12:12:53.067Z,43.37
2018-09-05T12:13:53.054Z,43.83
2018-09-05T12:14:52.724Z,44.4
2018-09-05T12:15:52.694Z,43.7
2018-09-05T12:16:52.638Z,41.1
2018-09-05T12:17:52.675Z,42.53
2018-09-05T12:18:52.680Z,41.39
2018-09-05T12:19:52.733Z,40.46
2018-09-05T12:20:52.755Z,41.39
2018-09-05T12:21:52.740Z,43.1
2018-09-05T12:22:52.835Z,43.31
2018-09-05T12:23:52.694Z,42.18
2018-09-05T12:24:52.752Z,42.28
2018-09-05T12:25:52.623Z,43.31
2018-09-05T12:26:52.621Z,42.78
2018-09-05T12:27:52.734Z,42.65
2018-09-05T12:28:52.738Z,43.1
2018-09-05T12:29:52.679Z,42.23
2018-09-05T12:30:52.854Z,41.55
2018-09-05T12:31:52.919Z,42.45
2018-09-05T12:32:52.866Z,42.13
2018-09-05T12:33:52.669Z,42.71
2018-09-05T12:34:52.755Z,42.55
2018-09-05T12:35:52.756Z,43.06
2018-09-05T12:36:52.654Z,42.26
2018-09-05T12:37:52.643Z,43.02
2018-09-05T12:38:52.662Z,43.14
2018-09-05T12:39:52.652Z,43.37
2018-09-05T12:40:52.966Z,41.8
2018-09-05T12:41:52.636Z,41.68
2018-09-05T12:42:52.680Z,41.97
2018-09-05T12:43:52.793Z,42.45
2018-09-05T12:44:52.692Z,42.62
2018-09-05T12:45:52.670Z,42.42
2018-09-05T12:46:52.672Z,41.8
2018-09-05T12:47:52.653Z,42.45
2018-09-05T12:48:52.690Z,41.68
2018-09-05T12:49:52.704Z,40.95
2018-09-05T12:50:52.649Z,40.68
2018-09-05T12:51:52.654Z,41.1
2018-09-05T12:52:53.183Z,41.1
2018-09-05T12:53:52.703Z,40.65
2018-09-05T12:54:52.775Z,39.93
2018-09-05T12:55:52.681Z,39.35